| time (UTC) | temp F | wind direction | speed knots | gust knots | rain 1hr in | rain 24hr in | rain mn in | humidity % | barometer mb |
| 20260510081557 | 50 | 172 | 0.0 | 0.0 | 0.00 | 0.13 | 0.00 | 93 | 1010.0 |
| 20260510080054 | 50 | 206 | 0.0 | 0.0 | 0.00 | 0.13 | 0.00 | 93 | 1010.0 |
| 20260510074552 | 50 | 252 | 0.0 | 0.0 | 0.00 | 0.13 | 0.00 | 93 | 1010.2 |
| 20260510073105 | 50 | 333 | 0.0 | 0.0 | 0.00 | 0.13 | 0.00 | 93 | 1010.3 |
| 20260510071557 | 50 | 333 | 0.0 | 0.0 | 0.00 | 0.13 | 0.00 | 93 | 1010.4 |
| 20260510070044 | 49 | 344 | 0.0 | 10.4 | 0.00 | 0.13 | 0.00 | 93 | 1010.1 |
| 20260510064548 | 48 | 184 | 0.0 | 0.0 | 0.00 | 0.13 | 0.00 | 93 | 1009.7 |
| 20260510063041 | 47 | 228 | 0.0 | 0.0 | 0.00 | 0.13 | 0.00 | 92 | 1009.7 |
| 20260510061537 | 48 | 228 | 0.0 | 0.0 | 0.00 | 0.13 | 0.00 | 92 | 1009.9 |
| 20260510060034 | 48 | 343 | 0.0 | 0.0 | 0.00 | 0.13 | 0.00 | 92 | 1010.0 |
| 20260510054531 | 48 | 343 | 2.6 | 5.2 | 0.00 | 0.13 | 0.00 | 93 | 1010.1 |
| 20260510053027 | 47 | 246 | 0.0 | 0.0 | 0.00 | 0.13 | 0.00 | 92 | 1009.5 |
| 20260510051530 | 48 | 246 | 0.0 | 0.0 | 0.00 | 0.13 | 0.00 | 92 | 1009.4 |
| 20260510050021 | 48 | 246 | 0.0 | 0.0 | 0.00 | 0.13 | 0.13 | 92 | 1009.6 |
| 20260510044523 | 48 | 246 | 0.0 | 0.0 | 0.00 | 0.13 | 0.13 | 92 | 1009.5 |
| 20260510043020 | 48 | 246 | 0.0 | 0.0 | 0.00 | 0.13 | 0.13 | 92 | 1009.6 |
| 20260510041522 | 49 | 246 | 0.0 | 0.0 | 0.00 | 0.13 | 0.13 | 92 | 1009.8 |
| 20260510040021 | 48 | 246 | 0.0 | 0.0 | 0.00 | 0.13 | 0.13 | 90 | 1009.6 |
| 20260510034515 | 49 | 246 | 0.0 | 0.0 | 0.00 | 0.13 | 0.13 | 91 | 1009.6 |
| 20260510033014 | 49 | 246 | 0.0 | 0.0 | 0.00 | 0.13 | 0.13 | 91 | 1009.6 |
| 20260510031517 | 50 | 246 | 0.0 | 0.0 | 0.00 | 0.13 | 0.13 | 91 | 1009.6 |
| 20260510030010 | 51 | 246 | 0.0 | 0.0 | 0.00 | 0.13 | 0.13 | 90 | 1009.7 |
| 20260510024507 | 51 | 246 | 0.0 | 0.0 | 0.00 | 0.13 | 0.13 | 90 | 1009.6 |
| 20260510023007 | 52 | 246 | 0.0 | 0.0 | 0.00 | 0.13 | 0.13 | 90 | 1009.4 |
| 20260510021507 | 52 | 246 | 0.0 | 0.0 | 0.00 | 0.13 | 0.13 | 90 | 1009.4 |
| 20260510020003 | 52 | 246 | 0.0 | 0.0 | 0.00 | 0.13 | 0.13 | 90 | 1009.2 |
| 20260510014621 | 52 | 246 | 0.0 | 0.0 | 0.00 | 0.13 | 0.13 | 89 | 1009.1 |
| 20260510014504 | 52 | 246 | 0.0 | 0.0 | 0.00 | 0.13 | 0.13 | 89 | 1009.1 |
| 20260510013104 | 53 | 246 | 0.0 | 0.0 | 0.00 | 0.13 | 0.13 | 89 | 1009.0 |
| 20260510011600 | 53 | 246 | 0.0 | 0.0 | 0.00 | 0.13 | 0.13 | 89 | 1008.9 |
| 20260510010057 | 53 | 246 | 0.0 | 0.0 | 0.00 | 0.13 | 0.13 | 88 | 1008.9 |
| 20260510004557 | 54 | 246 | 0.0 | 0.0 | 0.00 | 0.13 | 0.13 | 86 | 1008.7 |
| 20260510003100 | 55 | 246 | 0.0 | 0.0 | 0.00 | 0.13 | 0.13 | 86 | 1008.6 |
| 20260510001556 | 56 | 246 | 0.0 | 0.0 | 0.00 | 0.13 | 0.13 | 84 | 1008.3 |
| 20260510000052 | 57 | 246 | 0.0 | 0.0 | 0.00 | 0.13 | 0.13 | 83 | 1008.2 |
| 20260509234552 | 59 | 246 | 0.0 | 0.0 | 0.00 | 0.13 | 0.13 | 81 | 1008.2 |
| 20260509233054 | 60 | 246 | 0.0 | 0.0 | 0.00 | 0.13 | 0.13 | 78 | 1008.1 |
| 20260509231551 | 60 | 246 | 0.0 | 0.0 | 0.00 | 0.13 | 0.13 | 78 | 1008.2 |
| 20260509230048 | 61 | 246 | 0.0 | 0.0 | 0.00 | 0.13 | 0.13 | 78 | 1008.2 |
| 20260509224647 | 61 | 242 | 0.0 | 0.0 | 0.00 | 0.13 | 0.13 | 77 | 1008.1 |
| 20260509223049 | 60 | 225 | 0.0 | 0.0 | 0.00 | 0.13 | 0.13 | 80 | 1008.0 |
| 20260509221600 | 60 | 269 | 0.0 | 3.5 | 0.00 | 0.13 | 0.13 | 79 | 1008.1 |
| 20260509220042 | 60 | 292 | 0.0 | 5.2 | 0.00 | 0.13 | 0.13 | 79 | 1008.2 |
| 20260509214539 | 59 | 234 | 0.0 | 0.0 | 0.00 | 0.13 | 0.13 | 82 | 1008.4 |
| 20260509213038 | 58 | 236 | 0.0 | 0.0 | 0.00 | 0.13 | 0.13 | 83 | 1008.4 |
| 20260509211538 | 58 | 237 | 0.0 | 0.0 | 0.00 | 0.13 | 0.13 | 83 | 1008.2 |
| 20260509210010 | 58 | 260 | 0.0 | 0.0 | 0.00 | 0.13 | 0.13 | 84 | 1008.5 |
| 20260509204503 | 58 | 268 | 0.0 | 6.1 | 0.00 | 0.13 | 0.13 | 83 | 1008.9 |
| 20260509203032 | 58 | 225 | 0.0 | 3.5 | 0.00 | 0.13 | 0.13 | 84 | 1008.9 |
| 20260509201539 | 57 | 281 | 0.0 | 7.0 | 0.00 | 0.13 | 0.13 | 85 | 1008.9 |
| 20260509200029 | 57 | 252 | 0.0 | 0.0 | 0.00 | 0.13 | 0.13 | 87 | 1008.9 |
| 20260509194528 | 56 | 251 | 0.0 | 0.0 | 0.00 | 0.13 | 0.13 | 86 | 1009.0 |
| 20260509193028 | 56 | 251 | 0.0 | 0.0 | 0.01 | 0.13 | 0.13 | 87 | 1009.0 |
| 20260509191526 | 55 | 251 | 0.0 | 0.0 | 0.02 | 0.13 | 0.13 | 88 | 1009.3 |
| 20260509190022 | 55 | 251 | 0.0 | 0.0 | 0.03 | 0.13 | 0.13 | 89 | 1009.7 |
| 20260509184526 | 54 | 250 | 0.0 | 0.0 | 0.03 | 0.13 | 0.13 | 89 | 1010.1 |
| 20260509183022 | 54 | 250 | 0.0 | 0.0 | 0.03 | 0.12 | 0.12 | 88 | 1010.2 |
| 20260509181520 | 55 | 250 | 0.0 | 0.0 | 0.02 | 0.11 | 0.11 | 88 | 1010.3 |
| 20260509180015 | 55 | 250 | 0.0 | 0.0 | 0.02 | 0.10 | 0.10 | 88 | 1010.3 |
| 20260509174515 | 55 | 250 | 0.0 | 0.9 | 0.04 | 0.10 | 0.10 | 87 | 1010.3 |
| 20260509173014 | 55 | 300 | 0.0 | 0.0 | 0.06 | 0.09 | 0.09 | 88 | 1010.2 |
| 20260509171524 | 55 | 5 | 0.0 | 1.7 | 0.07 | 0.09 | 0.09 | 87 | 1010.0 |
| 20260509170024 | 55 | 288 | 0.0 | 1.7 | 0.07 | 0.08 | 0.08 | 86 | 1010.1 |
| 20260509164511 | 56 | 281 | 0.0 | 4.3 | 0.06 | 0.06 | 0.06 | 85 | 1010.0 |
| 20260509163014 | 57 | 289 | 0.0 | 4.3 | 0.03 | 0.03 | 0.03 | 84 | 1010.3 |
| 20260509161507 | 58 | 250 | 0.0 | 0.9 | 0.02 | 0.02 | 0.02 | 84 | 1010.6 |
| 20260509160007 | 58 | 249 | 0.0 | 7.0 | 0.01 | 0.01 | 0.01 | 82 | 1010.5 |
| 20260509154505 | 59 | 257 | 0.0 | 5.2 | 0.00 | 0.00 | 0.00 | 79 | 1010.6 |
| 20260509153004 | 59 | 232 | 0.0 | 6.1 | 0.00 | 0.00 | 0.00 | 78 | 1010.6 |
| 20260509151501 | 59 | 246 | 0.0 | 7.0 | 0.00 | 0.00 | 0.00 | 78 | 1010.6 |
| 20260509150100 | 58 | 225 | 1.7 | 7.0 | 0.00 | 0.00 | 0.00 | 77 | 1010.5 |
| 20260509144559 | 58 | 259 | 0.0 | 3.5 | 0.00 | 0.00 | 0.00 | 77 | 1010.5 |
| 20260509143059 | 58 | 211 | 0.0 | 0.0 | 0.00 | 0.00 | 0.00 | 77 | 1010.2 |
| 20260509141555 | 58 | 255 | 0.0 | 4.3 | 0.00 | 0.00 | 0.00 | 77 | 1010.1 |
| 20260509134624 | 58 | 236 | 0.0 | 0.0 | 0.00 | 0.00 | 0.00 | 78 | 1010.1 |
| 20260509133055 | 57 | 182 | 0.0 | 0.0 | 0.00 | 0.00 | 0.00 | 79 | 1010.1 |
| 20260509131551 | 56 | 185 | 0.0 | 0.0 | 0.00 | 0.00 | 0.00 | 79 | 1010.1 |
| 20260509130044 | 56 | 294 | 0.0 | 0.0 | 0.00 | 0.00 | 0.00 | 81 | 1009.9 |
| 20260509124542 | 55 | 294 | 0.0 | 0.0 | 0.00 | 0.00 | 0.00 | 80 | 1010.0 |
| 20260509123042 | 55 | 294 | 0.0 | 0.0 | 0.00 | 0.00 | 0.00 | 80 | 1010.0 |
| 20260509121536 | 55 | 292 | 0.0 | 0.0 | 0.00 | 0.00 | 0.00 | 81 | 1010.2 |
| 20260509120036 | 54 | 292 | 0.0 | 0.0 | 0.00 | 0.00 | 0.00 | 81 | 1010.2 |
| 20260509114538 | 53 | 292 | 0.0 | 0.0 | 0.00 | 0.00 | 0.00 | 83 | 1010.1 |
| 20260509113031 | 52 | 291 | 0.0 | 0.0 | 0.00 | 0.00 | 0.00 | 84 | 1010.0 |
| 20260509111528 | 52 | 291 | 0.0 | 0.0 | 0.00 | 0.00 | 0.00 | 85 | 1010.0 |
| 20260509110025 | 52 | 291 | 0.0 | 0.0 | 0.00 | 0.00 | 0.00 | 84 | 1009.9 |
| 20260509104524 | 52 | 291 | 0.0 | 0.0 | 0.00 | 0.00 | 0.00 | 84 | 1009.7 |
| 20260509103024 | 52 | 285 | 0.0 | 0.0 | 0.00 | 0.00 | 0.00 | 83 | 1009.8 |
| 20260509101559 | 51 | 284 | 0.0 | 0.0 | 0.00 | 0.00 | 0.00 | 83 | 1009.7 |
| 20260509100053 | 51 | 283 | 0.0 | 0.0 | 0.00 | 0.00 | 0.00 | 83 | 1009.6 |
| 20260509094550 | 51 | 283 | 0.0 | 0.0 | 0.00 | 0.00 | 0.00 | 84 | 1009.5 |
| 20260509093049 | 51 | 283 | 0.0 | 0.0 | 0.00 | 0.00 | 0.00 | 83 | 1010.0 |
| 20260509091550 | 52 | 283 | 0.0 | 0.0 | 0.00 | 0.00 | 0.00 | 82 | 1010.0 |
| 20260509090047 | 52 | 283 | 0.0 | 0.0 | 0.00 | 0.00 | 0.00 | 82 | 1010.0 |
| 20260509084544 | 51 | 279 | 0.0 | 0.0 | 0.00 | 0.00 | 0.00 | 83 | 1010.1 |
| 20260509083047 | 51 | 279 | 0.0 | 0.0 | 0.00 | 0.00 | 0.00 | 82 | 1010.3 |